createdAt,value
2023-02-02T00:01:24.156Z,13.70
2023-02-02T00:04:23.761Z,13.80
2023-02-02T00:07:11.583Z,14.40
2023-02-02T00:09:59.538Z,12.10
2023-02-02T00:12:47.532Z,13.10
2023-02-02T00:15:35.443Z,18.70
2023-02-02T00:18:23.204Z,15.90
2023-02-02T00:21:11.244Z,23.70
2023-02-02T00:24:01.822Z,17.40
2023-02-02T00:26:56.352Z,18.40
2023-02-02T00:29:44.859Z,16.70
2023-02-02T00:32:33.381Z,18.70
2023-02-02T00:35:21.109Z,18.10
2023-02-02T00:38:09.321Z,18.60
2023-02-02T00:40:57.341Z,24.40
2023-02-02T00:44:05.876Z,17.70
2023-02-02T00:46:53.682Z,18.20
2023-02-02T00:49:41.738Z,18.80
2023-02-02T00:52:30.423Z,25.40
2023-02-02T00:55:18.653Z,21.80
2023-02-02T00:58:08.528Z,20.00
2023-02-02T01:00:57.204Z,17.10
2023-02-02T01:03:51.795Z,19.20
2023-02-02T01:06:39.731Z,17.40
2023-02-02T01:09:29.478Z,19.50
2023-02-02T01:12:17.111Z,22.10
2023-02-02T01:15:06.125Z,13.60
2023-02-02T01:17:54.299Z,19.10
2023-02-02T01:20:42.080Z,18.50
2023-02-02T01:23:31.039Z,21.90
2023-02-02T01:26:19.253Z,16.00
2023-02-02T01:29:07.123Z,18.90
2023-02-02T01:31:55.051Z,26.20
2023-02-02T01:34:43.794Z,19.20
2023-02-02T01:37:32.186Z,22.30
2023-02-02T01:40:20.498Z,24.30
2023-02-02T01:43:23.085Z,21.30
2023-02-02T01:46:17.454Z,22.20
2023-02-02T01:49:19.445Z,16.60
2023-02-02T01:52:10.243Z,18.90
2023-02-02T01:55:08.378Z,16.80
2023-02-02T01:58:03.277Z,22.40
2023-02-02T02:00:52.001Z,18.60
2023-02-02T02:03:39.943Z,14.00
2023-02-02T02:06:29.074Z,15.90
2023-02-02T02:09:17.569Z,14.50
2023-02-02T02:12:15.673Z,18.20
2023-02-02T02:15:22.572Z,13.30
2023-02-02T02:18:33.371Z,15.60
2023-02-02T02:22:06.391Z,16.50
2023-02-02T02:26:19.776Z,11.40
2023-02-02T02:29:59.788Z,16.20
2023-02-02T02:33:10.787Z,16.90
2023-02-02T02:36:09.676Z,14.80
2023-02-02T02:39:12.123Z,14.20
2023-02-02T02:42:10.497Z,23.40
2023-02-02T02:45:02.676Z,14.50
2023-02-02T02:47:51.419Z,14.70
2023-02-02T02:50:39.856Z,13.00
2023-02-02T02:53:28.373Z,19.10
2023-02-02T02:56:32.240Z,14.20
2023-02-02T02:59:47.635Z,14.10
2023-02-02T03:02:58.625Z,12.70
2023-02-02T03:06:15.063Z,8.90
2023-02-02T03:09:11.019Z,15.20
2023-02-02T03:11:59.970Z,16.80
2023-02-02T03:14:47.707Z,18.10
2023-02-02T03:17:35.608Z,10.70
2023-02-02T03:20:23.229Z,15.20
2023-02-02T03:23:11.401Z,15.80
2023-02-02T03:25:59.784Z,15.30
2023-02-02T03:28:49.322Z,9.40
2023-02-02T03:31:37.373Z,12.80
2023-02-02T03:34:25.258Z,12.20
2023-02-02T03:37:13.534Z,16.60
2023-02-02T03:40:01.682Z,14.90
2023-02-02T03:42:49.581Z,15.30
2023-02-02T03:45:40.711Z,9.90
2023-02-02T03:48:28.833Z,13.40
2023-02-02T03:51:17.120Z,10.00
2023-02-02T03:54:05.057Z,11.60
2023-02-02T03:56:52.710Z,13.00
2023-02-02T03:59:40.709Z,14.40
2023-02-02T04:02:31.491Z,14.20
2023-02-02T04:05:19.402Z,11.90
2023-02-02T04:08:07.369Z,11.90
2023-02-02T04:10:55.589Z,11.50
2023-02-02T04:13:46.330Z,13.40
2023-02-02T04:16:37.186Z,14.80
2023-02-02T04:19:25.563Z,13.30
2023-02-02T04:22:14.079Z,14.60
2023-02-02T04:25:02.023Z,11.50
2023-02-02T04:27:50.181Z,14.70
2023-02-02T04:30:38.140Z,11.60
2023-02-02T04:33:28.482Z,12.20
2023-02-02T04:36:16.422Z,9.20
2023-02-02T04:39:04.241Z,12.10
2023-02-02T04:41:52.311Z,9.30
2023-02-02T04:44:40.965Z,10.00
2023-02-02T04:47:28.691Z,11.60
2023-02-02T04:50:17.241Z,9.70
2023-02-02T04:53:05.614Z,7.80
2023-02-02T04:55:53.664Z,8.60
2023-02-02T04:58:41.762Z,8.50
2023-02-02T05:01:30.950Z,8.00
2023-02-02T05:04:19.311Z,7.40
2023-02-02T05:07:07.777Z,9.20
2023-02-02T05:09:55.929Z,6.50
2023-02-02T05:12:43.787Z,11.00
2023-02-02T05:15:31.670Z,8.20
2023-02-02T05:18:19.802Z,9.50
2023-02-02T05:21:07.636Z,7.80
2023-02-02T05:23:55.579Z,9.50
2023-02-02T05:26:43.473Z,9.10
2023-02-02T05:29:31.530Z,8.10
2023-02-02T05:32:19.532Z,7.40
2023-02-02T05:35:08.579Z,9.40
2023-02-02T05:37:59.036Z,7.10
2023-02-02T05:40:49.812Z,8.90
2023-02-02T05:43:38.038Z,7.00
2023-02-02T05:46:25.828Z,7.10
2023-02-02T05:49:15.029Z,5.90
2023-02-02T05:52:03.336Z,6.30
2023-02-02T05:54:51.599Z,6.70
2023-02-02T05:57:39.544Z,6.70
2023-02-02T06:00:27.508Z,6.30
2023-02-02T06:03:15.415Z,6.30
2023-02-02T06:06:05.992Z,6.80
2023-02-02T06:08:54.854Z,6.00
2023-02-02T06:11:45.134Z,4.90
2023-02-02T06:14:33.352Z,5.00
2023-02-02T06:17:21.084Z,4.50
2023-02-02T06:20:10.277Z,4.90
2023-02-02T06:22:58.154Z,5.00
2023-02-02T06:25:46.003Z,4.60
2023-02-02T06:28:33.977Z,3.80
2023-02-02T06:31:24.736Z,4.30
2023-02-02T06:34:16.113Z,5.10
2023-02-02T06:37:04.121Z,5.50
2023-02-02T06:39:51.943Z,4.60
2023-02-02T06:42:41.076Z,4.40
2023-02-02T06:45:31.085Z,6.30
2023-02-02T06:48:18.575Z,7.20
2023-02-02T06:51:06.689Z,4.40
2023-02-02T06:53:54.589Z,4.40
2023-02-02T06:56:42.477Z,5.60
2023-02-02T06:59:30.313Z,4.20
2023-02-02T07:02:18.132Z,6.40
2023-02-02T07:05:06.606Z,4.90
2023-02-02T07:07:54.980Z,5.00
2023-02-02T07:11:13.183Z,7.40
2023-02-02T07:13:52.725Z,6.70
2023-02-02T07:16:40.924Z,5.70
2023-02-02T07:19:29.036Z,5.80
2023-02-02T07:22:17.085Z,5.50
2023-02-02T07:25:05.413Z,6.50
2023-02-02T07:27:55.247Z,8.40
2023-02-02T07:30:43.521Z,7.90
2023-02-02T07:33:31.451Z,6.40
2023-02-02T07:36:23.501Z,6.40
2023-02-02T07:39:12.169Z,5.20
2023-02-02T07:41:59.993Z,6.80
2023-02-02T07:44:52.044Z,6.60
2023-02-02T07:47:40.009Z,7.50
2023-02-02T07:50:31.089Z,7.40
2023-02-02T07:53:18.860Z,6.00
2023-02-02T07:56:13.717Z,7.50
2023-02-02T07:59:01.605Z,7.10
2023-02-02T08:01:49.456Z,12.00
2023-02-02T08:04:37.464Z,6.30
2023-02-02T08:07:25.654Z,6.90
2023-02-02T08:10:14.192Z,8.10
2023-02-02T08:13:02.368Z,6.50
2023-02-02T08:15:50.332Z,6.50
2023-02-02T08:18:38.776Z,7.20
2023-02-02T08:21:27.251Z,6.50
2023-02-02T08:24:14.867Z,6.40
2023-02-02T08:27:03.242Z,6.70
2023-02-02T08:29:51.076Z,6.30
2023-02-02T08:32:38.823Z,9.50
2023-02-02T08:35:27.150Z,7.20
2023-02-02T08:38:14.984Z,7.40
2023-02-02T08:41:09.274Z,6.10
2023-02-02T08:43:57.148Z,6.60
2023-02-02T08:46:45.281Z,6.70
2023-02-02T08:49:33.485Z,5.70
2023-02-02T08:52:21.124Z,5.70
2023-02-02T08:55:09.490Z,7.30
2023-02-02T08:57:57.356Z,7.10
2023-02-02T09:00:45.458Z,6.60
2023-02-02T09:03:34.177Z,7.20
2023-02-02T09:06:22.812Z,6.40
2023-02-02T09:09:15.080Z,5.80
2023-02-02T09:12:02.950Z,6.30
2023-02-02T09:14:53.157Z,6.60
2023-02-02T09:17:41.243Z,7.60
2023-02-02T09:20:29.317Z,6.90
2023-02-02T09:23:17.261Z,6.10
2023-02-02T09:26:18.479Z,6.70
2023-02-02T09:29:11.336Z,5.50
2023-02-02T09:32:00.696Z,5.90
2023-02-02T09:34:49.146Z,6.00
2023-02-02T09:37:37.358Z,7.00
2023-02-02T09:40:27.975Z,6.50
2023-02-02T09:43:34.687Z,5.70
2023-02-02T09:46:52.171Z,7.70
2023-02-02T09:50:17.081Z,6.50
2023-02-02T09:53:54.770Z,6.90
2023-02-02T09:56:50.806Z,8.10
2023-02-02T09:59:41.996Z,8.10
2023-02-02T10:02:46.144Z,8.10
2023-02-02T10:05:58.046Z,7.10
2023-02-02T10:08:55.913Z,5.40
2023-02-02T10:12:24.247Z,7.70
2023-02-02T10:15:43.244Z,4.70
2023-02-02T10:18:55.802Z,4.80
2023-02-02T10:22:00.569Z,5.50
2023-02-02T10:24:48.673Z,4.90
2023-02-02T10:27:41.102Z,3.70
2023-02-02T10:30:55.739Z,4.80
2023-02-02T10:33:59.234Z,4.20
2023-02-02T10:37:20.131Z,5.00
2023-02-02T10:40:35.041Z,5.00
2023-02-02T10:43:57.570Z,5.00
2023-02-02T10:46:57.215Z,5.20
2023-02-02T10:49:45.952Z,5.30
2023-02-02T10:52:35.249Z,6.50
2023-02-02T10:55:41.494Z,6.00
2023-02-02T10:58:36.463Z,13.60
2023-02-02T11:01:24.470Z,7.20
2023-02-02T11:04:30.361Z,6.80
2023-02-02T11:07:20.667Z,5.70
2023-02-02T11:10:09.008Z,5.90
2023-02-02T11:13:01.938Z,6.20
2023-02-02T11:15:50.016Z,5.30
2023-02-02T11:18:37.791Z,6.20
2023-02-02T11:21:34.586Z,5.70
2023-02-02T11:24:27.244Z,5.80
2023-02-02T11:27:29.241Z,4.20
2023-02-02T11:30:50.592Z,5.80
2023-02-02T11:33:38.471Z,8.10
2023-02-02T11:36:26.260Z,5.60
2023-02-02T11:39:22.575Z,5.90
2023-02-02T11:42:18.959Z,7.00
2023-02-02T11:45:18.207Z,6.90
2023-02-02T11:48:20.063Z,6.30
2023-02-02T11:51:10.247Z,5.30
2023-02-02T11:54:08.120Z,6.30
2023-02-02T11:57:01.428Z,6.20
2023-02-02T12:00:10.255Z,6.30
2023-02-02T12:02:59.423Z,6.20
2023-02-02T12:05:50.069Z,5.40
2023-02-02T12:08:38.193Z,5.10
2023-02-02T12:12:02.402Z,7.00
2023-02-02T12:15:27.216Z,5.70
2023-02-02T12:18:51.961Z,5.80
2023-02-02T12:22:07.272Z,8.50
2023-02-02T12:25:33.003Z,5.50
2023-02-02T12:28:27.476Z,5.90
2023-02-02T12:31:21.140Z,5.70
2023-02-02T12:34:24.565Z,4.80
2023-02-02T12:37:46.121Z,5.10
2023-02-02T12:41:23.787Z,6.20
2023-02-02T12:44:36.950Z,5.50
2023-02-02T12:47:36.163Z,7.30
2023-02-02T12:50:54.615Z,7.50
2023-02-02T12:54:32.856Z,6.00
2023-02-02T12:57:27.870Z,7.20
2023-02-02T13:00:39.572Z,7.20
2023-02-02T13:04:07.147Z,6.20
2023-02-02T13:07:40.798Z,8.10
2023-02-02T13:10:42.344Z,9.40
2023-02-02T13:13:38.570Z,8.00
2023-02-02T13:16:30.352Z,8.70
2023-02-02T13:19:46.426Z,6.70
2023-02-02T13:22:45.730Z,7.80
2023-02-02T13:25:41.681Z,6.60
2023-02-02T13:28:41.706Z,6.70
2023-02-02T13:31:45.804Z,5.70
2023-02-02T13:35:08.773Z,6.50
2023-02-02T13:38:07.353Z,6.40
2023-02-02T13:40:59.397Z,7.20
2023-02-02T13:44:25.807Z,8.80
2023-02-02T13:47:46.202Z,7.70
2023-02-02T13:50:46.650Z,7.20
2023-02-02T13:53:58.615Z,8.00
2023-02-02T13:57:22.061Z,6.40
2023-02-02T14:00:18.950Z,9.60
2023-02-02T14:03:29.014Z,7.80
2023-02-02T14:06:23.923Z,6.40
2023-02-02T14:09:19.347Z,6.20
2023-02-02T14:12:11.413Z,6.60
2023-02-02T14:15:00.236Z,7.70
2023-02-02T14:17:51.846Z,8.00
2023-02-02T14:20:47.157Z,8.90
2023-02-02T14:23:55.554Z,7.60
2023-02-02T14:26:48.831Z,6.80
2023-02-02T14:29:46.924Z,7.50
2023-02-02T14:32:42.766Z,5.50
2023-02-02T14:35:31.342Z,6.10
2023-02-02T14:38:57.934Z,6.70
2023-02-02T14:43:00.756Z,6.00
2023-02-02T14:46:12.889Z,6.30
2023-02-02T14:49:01.123Z,5.20
2023-02-02T14:51:58.563Z,7.90
2023-02-02T14:54:49.306Z,9.20
2023-02-02T14:57:37.351Z,9.00
2023-02-02T15:00:32.536Z,6.40
2023-02-02T15:03:45.989Z,7.60
2023-02-02T15:06:37.276Z,6.90
2023-02-02T15:09:33.567Z,6.50
2023-02-02T15:13:04.790Z,7.80
2023-02-02T15:16:23.561Z,7.90
2023-02-02T15:19:24.983Z,7.00
2023-02-02T15:22:35.148Z,7.80
2023-02-02T15:25:44.832Z,6.90
2023-02-02T15:28:56.331Z,8.30
2023-02-02T15:31:46.894Z,6.60
2023-02-02T15:34:53.712Z,7.30
2023-02-02T15:37:56.442Z,8.30
2023-02-02T15:40:45.818Z,8.70
2023-02-02T15:43:35.757Z,6.20
2023-02-02T15:46:32.901Z,7.60
2023-02-02T15:49:33.305Z,8.20
2023-02-02T15:52:35.563Z,5.30
2023-02-02T15:55:31.880Z,7.20
2023-02-02T15:58:33.157Z,8.90
2023-02-02T16:01:24.765Z,11.60
2023-02-02T16:04:25.017Z,9.40
2023-02-02T16:07:20.083Z,10.40
2023-02-02T16:10:08.976Z,8.60
2023-02-02T16:12:56.936Z,7.30
2023-02-02T16:16:06.503Z,8.70
2023-02-02T16:19:26.824Z,9.30
2023-02-02T16:22:23.999Z,10.70
2023-02-02T16:25:23.212Z,8.40
2023-02-02T16:28:17.293Z,6.80
2023-02-02T16:31:05.770Z,7.70
2023-02-02T16:33:54.057Z,7.70
2023-02-02T16:36:42.367Z,7.90
2023-02-02T16:39:30.868Z,8.50
2023-02-02T16:42:31.706Z,9.80
2023-02-02T16:45:54.854Z,7.50
2023-02-02T16:48:59.753Z,10.80
2023-02-02T16:51:49.329Z,11.80
2023-02-02T16:54:40.131Z,10.10
2023-02-02T16:57:34.338Z,8.50
2023-02-02T17:00:27.299Z,9.00
2023-02-02T17:03:17.700Z,8.70
2023-02-02T17:06:06.987Z,16.70
2023-02-02T17:08:55.033Z,11.10
2023-02-02T17:11:58.271Z,9.40
2023-02-02T17:15:04.805Z,7.00
2023-02-02T17:17:53.642Z,8.10
2023-02-02T17:20:42.234Z,12.10
2023-02-02T17:23:32.696Z,10.10
2023-02-02T17:26:20.996Z,11.30
2023-02-02T17:29:13.204Z,8.60
2023-02-02T17:32:01.121Z,10.70
2023-02-02T17:34:49.324Z,10.70
2023-02-02T17:37:37.588Z,8.90
2023-02-02T17:40:25.948Z,10.20
2023-02-02T17:43:14.369Z,11.70
2023-02-02T17:46:03.991Z,9.60
2023-02-02T17:48:52.191Z,8.90
2023-02-02T17:51:43.497Z,8.90
2023-02-02T17:54:31.251Z,9.60
2023-02-02T17:57:19.047Z,10.50
2023-02-02T18:00:09.312Z,7.40
2023-02-02T18:03:14.955Z,9.10
2023-02-02T18:06:03.926Z,10.40
2023-02-02T18:08:52.108Z,8.10
2023-02-02T18:11:42.586Z,8.40
2023-02-02T18:14:30.914Z,11.30
2023-02-02T18:17:22.043Z,10.20
2023-02-02T18:20:15.683Z,7.70
2023-02-02T18:23:04.018Z,6.90
2023-02-02T18:25:53.043Z,6.80
2023-02-02T18:28:41.795Z,8.00
2023-02-02T18:31:29.746Z,6.00
2023-02-02T18:34:18.191Z,5.80
2023-02-02T18:37:06.132Z,6.40
2023-02-02T18:39:54.729Z,6.00
2023-02-02T18:42:42.897Z,7.20
2023-02-02T18:45:31.230Z,8.00
2023-02-02T18:48:19.918Z,11.50
2023-02-02T18:51:18.147Z,7.90
2023-02-02T18:54:06.185Z,7.70
2023-02-02T18:56:54.170Z,6.30
2023-02-02T18:59:43.548Z,7.20
2023-02-02T19:02:31.873Z,7.10
2023-02-02T19:05:38.491Z,6.80
2023-02-02T19:08:26.661Z,6.00
2023-02-02T19:11:25.042Z,8.70
2023-02-02T19:14:20.001Z,9.40
2023-02-02T19:17:16.746Z,6.00
2023-02-02T19:20:30.713Z,6.40
2023-02-02T19:23:24.700Z,8.40
2023-02-02T19:26:28.238Z,5.70
2023-02-02T19:29:25.984Z,7.20
2023-02-02T19:32:31.272Z,9.20
2023-02-02T19:35:26.558Z,5.90
2023-02-02T19:38:16.414Z,7.00
2023-02-02T19:41:34.179Z,8.80
2023-02-02T19:44:34.094Z,12.90
2023-02-02T19:47:30.609Z,8.90
2023-02-02T19:50:27.264Z,11.10
2023-02-02T19:53:38.922Z,7.80
2023-02-02T19:56:34.095Z,7.10
2023-02-02T19:59:24.865Z,8.00
2023-02-02T20:03:05.061Z,7.20
2023-02-02T20:05:56.749Z,7.30
2023-02-02T20:08:45.086Z,11.50
2023-02-02T20:11:40.760Z,7.00
2023-02-02T20:14:30.922Z,12.10
2023-02-02T20:17:34.553Z,11.80
2023-02-02T20:20:33.034Z,7.20
2023-02-02T20:23:44.235Z,6.20
2023-02-02T20:26:38.484Z,9.20
2023-02-02T20:29:38.294Z,6.90
2023-02-02T20:32:41.342Z,7.50
2023-02-02T20:35:44.533Z,6.50
2023-02-02T20:38:41.705Z,7.10
2023-02-02T20:41:29.970Z,7.40
2023-02-02T20:44:17.759Z,8.00
2023-02-02T20:47:08.183Z,7.20
2023-02-02T20:49:57.441Z,8.30
2023-02-02T20:52:45.497Z,5.90
2023-02-02T20:55:36.229Z,6.00
2023-02-02T20:58:25.422Z,7.00
2023-02-02T21:01:13.468Z,6.80
2023-02-02T21:04:01.561Z,6.50
2023-02-02T21:06:50.606Z,6.00
2023-02-02T21:09:38.894Z,6.50
2023-02-02T21:12:27.071Z,8.50
2023-02-02T21:15:15.429Z,5.80
2023-02-02T21:18:03.514Z,6.60
2023-02-02T21:20:51.641Z,5.60
2023-02-02T21:23:46.288Z,5.20
2023-02-02T21:26:34.312Z,5.70
2023-02-02T21:29:22.685Z,5.40
2023-02-02T21:32:10.929Z,5.80
2023-02-02T21:34:59.086Z,6.30
2023-02-02T21:37:50.552Z,6.00
2023-02-02T21:40:39.890Z,6.50
2023-02-02T21:43:27.912Z,6.20
2023-02-02T21:46:24.850Z,5.50
2023-02-02T21:49:26.856Z,6.20
2023-02-02T21:52:18.612Z,8.00
2023-02-02T21:55:38.879Z,7.90
2023-02-02T21:58:38.579Z,7.80
2023-02-02T22:01:36.474Z,6.60
2023-02-02T22:04:29.555Z,7.40
2023-02-02T22:07:17.760Z,7.40
2023-02-02T22:10:42.578Z,8.00
2023-02-02T22:13:35.623Z,7.00
2023-02-02T22:16:23.639Z,7.70
2023-02-02T22:19:28.175Z,9.60
2023-02-02T22:22:45.511Z,8.90
2023-02-02T22:25:37.059Z,8.60
2023-02-02T22:28:36.890Z,9.80
2023-02-02T22:31:25.422Z,8.60
2023-02-02T22:34:13.744Z,9.50
2023-02-02T22:37:01.743Z,8.30
2023-02-02T22:39:49.573Z,13.40
2023-02-02T22:42:37.968Z,8.10
2023-02-02T22:45:26.692Z,11.80
2023-02-02T22:48:16.046Z,13.50
2023-02-02T22:51:04.108Z,12.90
2023-02-02T22:53:51.889Z,10.50
2023-02-02T22:56:39.803Z,9.20
2023-02-02T22:59:27.842Z,10.60
2023-02-02T23:02:15.756Z,11.10
2023-02-02T23:05:04.692Z,8.20
2023-02-02T23:07:53.755Z,9.30
2023-02-02T23:10:41.556Z,8.90
2023-02-02T23:13:29.520Z,11.70
2023-02-02T23:16:17.388Z,8.70
2023-02-02T23:19:05.717Z,10.60
2023-02-02T23:21:53.945Z,12.20
2023-02-02T23:24:42.346Z,10.90
2023-02-02T23:27:30.040Z,11.00
2023-02-02T23:30:21.109Z,10.00
2023-02-02T23:33:09.277Z,13.40
2023-02-02T23:35:57.406Z,12.90
2023-02-02T23:38:45.556Z,12.10
2023-02-02T23:41:33.819Z,14.00
2023-02-02T23:44:21.778Z,14.60
2023-02-02T23:47:10.722Z,15.70
2023-02-02T23:49:58.441Z,17.00
2023-02-02T23:52:47.311Z,14.00
2023-02-02T23:55:35.694Z,11.70
2023-02-02T23:58:23.864Z,13.00
